1928 Tropical Low NOT_NAMED (1928110S18153)


IBTrACS version v04r00. Visit IBTrACS website for data access.
Please direct all questions to the IBTrACS Q and A forum

Storm track - Intensity - Wind Radii - Intensity Data - Source Data - All data

Summary Information

Storm ID 1928110S18153
Start Apr 18 23Z
Max Intensity 25 kt (Apr 21 00Z)
End Apr 22 23Z
ATCF IDs
Track status Best track data.

Storm track plot

Map of storm track

Intensity plots

Map of storm track

Radial wind information

No radial wind information for this storm


Position and Intensity Table

BASIN ISO_TIME_________ NATURE LAT LON DS824 WIND DS824 PRES
degrees north degrees east kts mb
SP 1928-04-18 23:00:00 NR -17.60 153.00
SP 1928-04-19 00:00:00 TS -17.66 152.94
SP 03:00:00 TS -17.97 152.84
SP 06:00:00 TS -18.29 152.75
SP 09:00:00 TS -18.61 152.69
SP 11:00:00 TS -18.82 152.66
SP 12:00:00 TS -18.93 152.65
SP 15:00:00 TS -19.24 152.63
SP 18:00:00 TS -19.53 152.64
SP 21:00:00 TS -19.78 152.66
SP 23:00:00 TS -19.92 152.69
SP 1928-04-20 00:00:00 TS -19.98 152.71
SP 03:00:00 TS -20.12 152.76
SP 06:00:00 TS -20.21 152.84
SP 09:00:00 TS -20.28 152.93
SP 11:00:00 TS -20.32 152.99
SP 12:00:00 TS -20.34 153.03
SP 15:00:00 TS -20.41 153.15
SP 18:00:00 TS -20.48 153.27
SP 21:00:00 TS -20.54 153.40
SP 23:00:00 TS -20.59 153.48
SP 1928-04-21 00:00:00 TS -20.61 153.52 25 1002
SP 03:00:00 TS -20.69 153.64
SP 06:00:00 TS -20.78 153.76
SP 09:00:00 TS -20.87 153.87
SP 11:00:00 TS -20.93 153.95
SP 12:00:00 TS -20.96 153.98
SP 15:00:00 TS -21.05 154.07
SP 18:00:00 TS -21.14 154.17
SP 21:00:00 TS -21.25 154.27
SP 23:00:00 TS -21.32 154.36
SP 1928-04-22 00:00:00 TS -21.35 154.42
SP 03:00:00 NR -21.46 154.63
SP 06:00:00 NR -21.61 154.82
SP 09:00:00 NR -21.78 155.00
SP 11:00:00 NR -21.90 155.10
SP 12:00:00 NR -21.96 155.14
SP 15:00:00 NR -22.16 155.25
SP 18:00:00 NR -22.36 155.32
SP 21:00:00 NR -22.56 155.37
SP 23:00:00 NR -22.70 155.40

Source Information

Agency Information
USA
TOKYO
CMA
HKO
NEWDELHI
REUNION
BOM
NADI
WELLINGTON
DS824 aus_area.dat:62:NOT NAMED
TD9636 cons_worldwide_trop_cyclone_18710101-19891231-006:Line=1677
TD9635
NEUMANN
MLC

All available IBTrACS Data

SEASON BASIN SUBBASIN ISO_TIME_________ NATURE LAT LON DIST2LAND LANDFALL IFLAG USA SSHS DS824 LAT DS824 LON DS824 STAGE DS824 WIND DS824 PRES TD9636 LAT TD9636 LON TD9636 STAGE STORM SPEED STORM DIR
Year degrees north degrees east km km 1 degrees north degrees east kts mb degrees north degrees east kts degrees
1928 SP EA 1928-04-18 23:00:00 NR -17.60 153.00 535 519 __________O___ -1 -17.60 153.00 7 5 224
1928 SP EA 1928-04-19 00:00:00 TS -17.66 152.94 519 492 _________OP___ -1 -17.60 152.90 TC -17.70 152.96 7 6 203
1928 SP EA 03:00:00 TS -17.97 152.84 492 475 _________PP___ -1 -17.95 152.84 TC -17.98 152.83 7 7 196
1928 SP EA 06:00:00 TS -18.29 152.75 466 450 _________PP___ -1 -18.30 152.79 TC -18.28 152.72 7 7 193
1928 SP EA 09:00:00 TS -18.61 152.69 450 440 _________PP___ -1 -18.63 152.74 TC -18.59 152.64 7 7 189
1928 SP EA 11:00:00 TS -18.82 152.66 440 426 _________PO___ -1 -18.84 152.71 TC -18.80 152.60 7 6 187
1928 SP EA 12:00:00 TS -18.93 152.65 426 408 _________PP___ -1 -18.94 152.70 TC -18.91 152.59 7 6 183
1928 SP EA 15:00:00 TS -19.24 152.63 408 379 _________PP___ -1 -19.23 152.67 TC -19.24 152.58 7 6 182
1928 SP EA 18:00:00 TS -19.53 152.64 379 357 _________PP___ -1 -19.49 152.66 TC -19.56 152.61 7 5 175
1928 SP EA 21:00:00 TS -19.78 152.66 357 348 _________PP___ -1 -19.72 152.67 TC -19.85 152.66 7 5 172
1928 SP EA 23:00:00 TS -19.92 152.69 348 339 _________PO___ -1 -19.84 152.69 TC -20.00 152.70 7 4 169
1928 SP EA 1928-04-20 00:00:00 TS -19.98 152.71 339 330 _________OP___ -1 -19.90 152.70 TC -20.06 152.72 7 3 161
1928 SP EA 03:00:00 TS -20.12 152.76 336 328 _________PP___ -1 -20.04 152.75 TC -20.20 152.77 7 3 152
1928 SP EA 06:00:00 TS -20.21 152.84 328 327 _________PP___ -1 -20.13 152.83 TC -20.29 152.85 7 2 136
1928 SP EA 09:00:00 TS -20.28 152.93 327 327 _________PP___ -1 -20.20 152.92 TC -20.35 152.93 7 2 126
1928 SP EA 11:00:00 TS -20.32 152.99 334 334 _________PO___ -1 -20.23 152.99 TC -20.40 153.00 7 2 122
1928 SP EA 12:00:00 TS -20.34 153.03 334 326 _________PP___ -1 -20.25 153.03 TC -20.43 153.03 7 3 123
1928 SP EA 15:00:00 TS -20.41 153.15 334 334 _________PP___ -1 -20.28 153.14 TC -20.54 153.15 7 3 121
1928 SP EA 18:00:00 TS -20.48 153.27 341 341 _________PP___ -1 -20.31 153.26 TC -20.64 153.28 7 3 120
1928 SP EA 21:00:00 TS -20.54 153.40 349 342 _________PP___ -1 -20.35 153.38 TC -20.74 153.41 7 3 120
1928 SP EA 23:00:00 TS -20.59 153.48 350 350 _________PO___ -1 -20.38 153.46 TC -20.80 153.50 7 3 121
1928 SP EA 1928-04-21 00:00:00 TS -20.61 153.52 350 350 _________OP___ -1 -20.40 153.50 TC 25 1002 -20.83 153.54 7 3 124
1928 SP EA 03:00:00 TS -20.69 153.64 352 352 _________PP___ -1 -20.47 153.61 TC -20.91 153.67 7 3 126
1928 SP EA 06:00:00 TS -20.78 153.76 363 363 _________PP___ -1 -20.57 153.72 TC -20.99 153.80 7 3 129
1928 SP EA 09:00:00 TS -20.87 153.87 366 366 _________PP___ -1 -20.68 153.82 TC -21.06 153.92 7 3 131
1928 SP EA 11:00:00 TS -20.93 153.95 366 366 _________PO___ -1 -20.76 153.89 TC -21.10 154.00 7 3 134
1928 SP EA 12:00:00 TS -20.96 153.98 370 370 _________PP___ -1 -20.81 153.92 TC -21.12 154.03 7 3 134
1928 SP EA 15:00:00 TS -21.05 154.07 379 374 _________PP___ -1 -20.94 154.02 TC -21.15 154.13 7 3 136
1928 SP EA 18:00:00 TS -21.14 154.17 384 379 _________PP___ -1 -21.09 154.11 TC -21.19 154.22 7 3 137
1928 SP EA 21:00:00 TS -21.25 154.27 389 385 _________PP___ -1 -21.24 154.21 TC -21.25 154.32 7 3 134
1928 SP EA 23:00:00 TS -21.32 154.36 394 394 _________PO___ -1 -21.35 154.27 TC -21.30 154.40 7 3 125
1928 SP EA 1928-04-22 00:00:00 TS -21.35 154.42 394 391 _________OP___ -1 -21.40 154.30 TC -21.33 154.45 7 4 119
1928 SP EA 03:00:00 NR -21.46 154.63 392 389 __________P___ -1 TC -21.46 154.63 7 5 125
1928 SP EA 06:00:00 NR -21.61 154.82 389 377 __________P___ -1 TC -21.61 154.82 7 5 133
1928 SP EA 09:00:00 NR -21.78 155.00 377 372 __________P___ -1 TC -21.78 155.00 7 5 138
1928 SP EA 11:00:00 NR -21.90 155.10 372 362 __________O___ -1 TC -21.90 155.10 7 5 143
1928 SP EA 12:00:00 NR -21.96 155.14 362 358 __________P___ -1 TC -21.96 155.14 7 4 152
1928 SP EA 15:00:00 NR -22.16 155.25 349 345 __________P___ -1 TC -22.16 155.25 7 4 158
1928 SP EA 18:00:00 NR -22.36 155.32 336 325 __________P___ -1 TC -22.36 155.32 7 4 165
1928 SP EA 21:00:00 NR -22.56 155.37 325 317 __________P___ -1 TC -22.56 155.37 7 4 167
1928 SP EA 23:00:00 NR -22.70 155.40 317 __________O___ -1 TC -22.70 155.40 7 4 0